Time,TemperatureF,DewpointF,PressureIn,WindDirection,WindDirectionDegrees,WindSpeedMPH,WindSpeedGustMPH,Humidity,HourlyPrecipIn,Conditions,Clouds,dailyrainin,SoftwareType,DateUTC
2013-04-11 00:00:00,49.1,42.5,30.23,SE,145,0.0,0.0,78,0.00,,,0.26,Wunderground v.1.15,2013-04-11 07:00:00,
2013-04-11 00:10:00,48.8,42.6,30.24,ESE,107,0.0,0.0,79,0.00,,,0.00,Wunderground v.1.15,2013-04-11 07:10:00,
2013-04-11 00:15:00,48.8,42.9,30.24,South,185,0.0,0.0,80,0.00,,,0.00,Wunderground v.1.15,2013-04-11 07:15:00,
2013-04-11 00:25:00,48.6,42.7,30.24,ESE,113,0.0,0.0,80,0.00,,,0.00,Wunderground v.1.15,2013-04-11 07:25:00,
2013-04-11 00:35:00,48.3,42.4,30.24,ESE,110,0.0,3.0,80,0.00,,,0.00,Wunderground v.1.15,2013-04-11 07:35:00,
2013-04-11 00:45:00,48.0,42.4,30.24,South,180,0.0,3.0,81,0.00,,,0.00,Wunderground v.1.15,2013-04-11 07:45:00,
2013-04-11 00:55:00,47.6,42.4,30.24,SSW,202,1.0,3.0,82,0.00,,,0.00,Wunderground v.1.15,2013-04-11 07:55:00,
2013-04-11 01:05:00,47.4,42.2,30.24,SW,223,1.0,1.0,82,0.00,,,0.00,Wunderground v.1.15,2013-04-11 08:05:00,
2013-04-11 01:15:00,47.3,42.4,30.24,South,185,1.0,1.0,83,0.00,,,0.00,Wunderground v.1.15,2013-04-11 08:15:00,
2013-04-11 01:25:00,47.2,42.3,30.25,SSE,153,1.0,1.0,83,0.00,,,0.00,Wunderground v.1.15,2013-04-11 08:25:00,
2013-04-11 01:35:00,47.4,42.5,30.25,SSE,147,1.0,3.0,83,0.00,,,0.00,Wunderground v.1.15,2013-04-11 08:35:00,
2013-04-11 01:45:00,47.4,42.5,30.25,SSE,158,1.0,3.0,83,0.00,,,0.00,Wunderground v.1.15,2013-04-11 08:45:00,
2013-04-11 01:55:00,47.5,42.6,30.25,SSE,150,0.0,3.0,83,0.00,,,0.00,Wunderground v.1.15,2013-04-11 08:55:00,
2013-04-11 02:05:00,47.6,42.7,30.24,SE,125,1.0,3.0,83,0.00,,,0.00,Wunderground v.1.15,2013-04-11 09:05:00,
2013-04-11 02:15:00,47.6,42.7,30.24,ESE,112,1.0,1.0,83,0.00,,,0.00,Wunderground v.1.15,2013-04-11 09:15:00,
2013-04-11 02:25:00,47.4,42.5,30.24,SSE,165,1.0,3.0,83,0.00,,,0.00,Wunderground v.1.15,2013-04-11 09:25:00,
2013-04-11 02:35:00,47.3,42.4,30.24,SSE,157,1.0,5.0,83,0.00,,,0.00,Wunderground v.1.15,2013-04-11 09:35:00,
2013-04-11 02:45:00,47.2,42.3,30.24,SSW,206,0.0,5.0,83,0.00,,,0.00,Wunderground v.1.15,2013-04-11 09:45:00,
2013-04-11 02:50:00,47.2,42.3,30.24,NNE,25,1.0,1.0,83,0.00,,,0.00,Wunderground v.1.15,2013-04-11 09:50:00,
2013-04-11 02:55:00,47.1,42.2,30.24,NNE,18,1.0,5.0,83,0.00,,,0.00,Wunderground v.1.15,2013-04-11 09:55:00,
2013-04-11 03:05:00,47.1,42.2,30.24,SSW,207,1.0,2.0,83,0.00,,,0.00,Wunderground v.1.15,2013-04-11 10:05:00,
2013-04-11 03:15:00,46.9,42.0,30.24,SSW,192,1.0,2.0,83,0.00,,,0.00,Wunderground v.1.15,2013-04-11 10:15:00,
2013-04-11 03:25:00,46.7,41.8,30.23,SSE,156,2.0,2.0,83,0.00,,,0.00,Wunderground v.1.15,2013-04-11 10:25:00,
2013-04-11 03:35:00,46.6,42.0,30.24,SSW,194,1.0,6.0,84,0.00,,,0.00,Wunderground v.1.15,2013-04-11 10:35:00,
2013-04-11 03:45:00,46.5,41.9,30.23,SE,132,1.0,6.0,84,0.00,,,0.00,Wunderground v.1.15,2013-04-11 10:45:00,
2013-04-11 03:55:00,46.5,41.9,30.23,South,175,1.0,4.0,84,0.00,,,0.00,Wunderground v.1.15,2013-04-11 10:55:00,
2013-04-11 04:00:00,46.5,41.9,30.23,SSW,213,1.0,1.0,84,0.00,,,0.00,Wunderground v.1.15,2013-04-11 11:00:00,
2013-04-11 04:05:00,46.5,41.9,30.23,South,175,1.0,1.0,84,0.00,,,0.00,Wunderground v.1.15,2013-04-11 11:05:00,
2013-04-11 04:15:00,46.5,41.9,30.23,NW,318,1.0,1.0,84,0.00,,,0.00,Wunderground v.1.15,2013-04-11 11:15:00,
2013-04-11 04:25:00,46.5,41.9,30.23,South,185,1.0,1.0,84,0.00,,,0.00,Wunderground v.1.15,2013-04-11 11:25:00,
2013-04-11 04:35:00,46.5,41.9,30.23,SE,141,1.0,6.0,84,0.00,,,0.00,Wunderground v.1.15,2013-04-11 11:35:00,
2013-04-11 04:40:00,46.5,41.9,30.23,South,175,1.0,1.0,84,0.00,,,0.00,Wunderground v.1.15,2013-04-11 11:40:00,
2013-04-11 04:45:00,46.5,41.9,30.23,SSW,204,1.0,6.0,84,0.00,,,0.00,Wunderground v.1.15,2013-04-11 11:45:00,
2013-04-11 04:55:00,46.4,42.1,30.23,SSW,194,1.0,6.0,85,0.00,,,0.00,Wunderground v.1.15,2013-04-11 11:55:00,
2013-04-11 05:05:00,46.4,41.8,30.23,SSE,151,1.0,1.0,84,0.00,,,0.00,Wunderground v.1.15,2013-04-11 12:05:00,
2013-04-11 05:15:00,46.3,41.7,30.23,East,91,1.0,1.0,84,0.00,,,0.00,Wunderground v.1.15,2013-04-11 12:15:00,
2013-04-11 05:25:00,46.3,42.0,30.23,ESE,106,1.0,1.0,85,0.00,,,0.00,Wunderground v.1.15,2013-04-11 12:25:00,
2013-04-11 05:35:00,46.3,42.0,30.23,South,185,1.0,6.0,85,0.00,,,0.00,Wunderground v.1.15,2013-04-11 12:35:00,
2013-04-11 05:45:00,46.3,42.0,30.23,SE,143,1.0,6.0,85,0.00,,,0.00,Wunderground v.1.15,2013-04-11 12:45:00,
2013-04-11 05:55:00,46.3,42.0,30.23,South,185,1.0,6.0,85,0.00,,,0.00,Wunderground v.1.15,2013-04-11 12:55:00,
2013-04-11 06:05:00,46.3,42.0,30.23,SSE,150,1.0,1.0,85,0.00,,,0.00,Wunderground v.1.15,2013-04-11 13:05:00,
2013-04-11 06:15:00,46.3,42.0,30.23,SW,229,0.0,1.0,85,0.00,,,0.00,Wunderground v.1.15,2013-04-11 13:15:00,
2013-04-11 06:25:00,46.2,41.9,30.23,ESE,123,1.0,1.0,85,0.00,,,0.00,Wunderground v.1.15,2013-04-11 13:25:00,
2013-04-11 06:35:00,46.2,41.9,30.23,South,180,1.0,6.0,85,0.00,,,0.00,Wunderground v.1.15,2013-04-11 13:35:00,
2013-04-11 06:45:00,46.2,41.9,30.24,South,185,0.0,6.0,85,0.00,,,0.00,Wunderground v.1.15,2013-04-11 13:45:00,
2013-04-11 06:55:00,46.3,42.3,30.24,SSE,149,0.0,6.0,86,0.00,,,0.00,Wunderground v.1.15,2013-04-11 13:55:00,
2013-04-11 07:05:00,46.3,42.3,30.24,SSW,204,0.0,0.0,86,0.00,,,0.00,Wunderground v.1.15,2013-04-11 14:05:00,
2013-04-11 07:15:00,46.4,42.1,30.24,ESE,112,0.0,0.0,85,0.00,,,0.00,Wunderground v.1.15,2013-04-11 14:15:00,
2013-04-11 07:25:00,46.4,42.4,30.25,West,260,0.0,0.0,86,0.00,,,0.00,Wunderground v.1.15,2013-04-11 14:25:00,
2013-04-11 07:35:00,46.5,42.5,30.25,South,175,0.0,5.0,86,0.00,,,0.00,Wunderground v.1.15,2013-04-11 14:35:00,
2013-04-11 07:40:00,46.5,42.2,30.25,SSE,166,0.0,5.0,85,0.00,,,0.00,Wunderground v.1.15,2013-04-11 14:40:00,
2013-04-11 07:45:00,46.6,42.3,30.25,SSE,166,0.0,5.0,85,0.00,,,0.00,Wunderground v.1.15,2013-04-11 14:45:00,
2013-04-11 07:55:00,46.7,42.4,30.25,SSW,210,0.0,5.0,85,0.00,,,0.00,Wunderground v.1.15,2013-04-11 14:55:00,
2013-04-11 08:00:00,46.7,42.4,30.26,SW,218,0.0,0.0,85,0.00,,,0.00,Wunderground v.1.15,2013-04-11 15:00:00,
2013-04-11 08:05:00,46.7,42.4,30.25,SSW,198,0.0,0.0,85,0.00,,,0.00,Wunderground v.1.15,2013-04-11 15:05:00,
2013-04-11 08:15:00,46.8,43.1,30.26,SSE,166,0.0,0.0,87,0.00,,,0.00,Wunderground v.1.15,2013-04-11 15:15:00,
2013-04-11 08:20:00,46.7,43.3,30.26,South,185,0.0,0.0,88,0.00,,,0.00,Wunderground v.1.15,2013-04-11 15:20:00,
2013-04-11 08:25:00,46.5,43.1,30.26,SE,133,0.0,0.0,88,0.00,,,0.00,Wunderground v.1.15,2013-04-11 15:25:00,
2013-04-11 08:35:00,46.4,43.6,30.26,SE,133,0.0,3.0,90,0.00,,,0.00,Wunderground v.1.15,2013-04-11 15:35:00,
2013-04-11 08:45:00,46.5,44.0,30.26,SE,133,0.0,3.0,91,0.00,,,0.00,Wunderground v.1.15,2013-04-11 15:45:00,
2013-04-11 08:55:00,46.5,44.3,30.26,SE,133,0.0,3.0,92,0.00,,,0.00,Wunderground v.1.15,2013-04-11 15:55:00,
2013-04-11 09:05:00,46.7,44.5,30.26,SE,133,0.0,0.0,92,0.00,,,0.00,Wunderground v.1.15,2013-04-11 16:05:00,
2013-04-11 09:15:00,46.7,44.5,30.26,ESE,113,0.0,0.0,92,0.00,,,0.00,Wunderground v.1.15,2013-04-11 16:15:00,
2013-04-11 09:25:00,46.8,44.6,30.26,ESE,106,0.0,0.0,92,0.00,,,0.00,Wunderground v.1.15,2013-04-11 16:25:00,
2013-04-11 09:35:00,46.2,43.4,30.26,NNW,348,0.0,2.0,90,0.13,,,0.02,Wunderground v.1.15,2013-04-11 16:35:00,
2013-04-11 09:45:00,45.6,43.1,30.26,NNE,23,0.0,2.0,91,0.07,,,0.04,Wunderground v.1.15,2013-04-11 16:45:00,
2013-04-11 09:55:00,45.6,43.7,30.27,ENE,62,0.0,2.0,93,0.06,,,0.04,Wunderground v.1.15,2013-04-11 16:55:00,
2013-04-11 10:05:00,46.0,44.4,30.27,NNE,12,0.0,0.0,94,0.05,,,0.05,Wunderground v.1.15,2013-04-11 17:05:00,
2013-04-11 10:15:00,46.2,44.6,30.25,ESE,117,0.0,0.0,94,0.07,,,0.06,Wunderground v.1.15,2013-04-11 17:15:00,
2013-04-11 10:25:00,46.7,45.1,30.26,ENE,67,0.0,0.0,94,0.00,,,0.06,Wunderground v.1.15,2013-04-11 17:25:00,
2013-04-11 10:35:00,47.2,45.6,30.26,North,11,0.0,1.0,94,0.00,,,0.06,Wunderground v.1.15,2013-04-11 17:35:00,
2013-04-11 10:45:00,47.4,45.5,30.28,NNE,25,0.0,1.0,93,0.00,,,0.06,Wunderground v.1.15,2013-04-11 17:45:00,
2013-04-11 10:55:00,47.4,44.9,30.28,NNE,29,0.0,1.0,91,0.00,,,0.06,Wunderground v.1.15,2013-04-11 17:55:00,
2013-04-11 11:05:00,47.7,44.9,30.27,NE,45,0.0,0.0,90,0.00,,,0.06,Wunderground v.1.15,2013-04-11 18:05:00,
2013-04-11 11:15:00,47.8,43.8,30.28,North,10,0.0,0.0,86,0.00,,,0.06,Wunderground v.1.15,2013-04-11 18:15:00,
2013-04-11 11:25:00,47.8,42.6,30.27,NNW,332,0.0,0.0,82,0.00,,,0.06,Wunderground v.1.15,2013-04-11 18:25:00,
2013-04-11 11:35:00,47.8,43.5,30.28,NNW,345,0.0,2.0,85,0.00,,,0.06,Wunderground v.1.15,2013-04-11 18:35:00,
2013-04-11 11:45:00,47.8,43.5,30.28,NNE,27,0.0,2.0,85,0.00,,,0.06,Wunderground v.1.15,2013-04-11 18:45:00,
2013-04-11 11:55:00,48.2,44.2,30.27,NE,40,0.0,2.0,86,0.00,,,0.06,Wunderground v.1.15,2013-04-11 18:55:00,
2013-04-11 12:05:00,49.4,44.8,30.27,NW,322,0.0,1.0,84,0.00,,,0.06,Wunderground v.1.15,2013-04-11 19:05:00,
2013-04-11 12:15:00,50.4,43.8,30.27,NW,311,0.0,1.0,78,0.00,,,0.06,Wunderground v.1.15,2013-04-11 19:15:00,
2013-04-11 12:25:00,50.7,42.7,30.27,NNE,14,1.0,1.0,74,0.00,,,0.06,Wunderground v.1.15,2013-04-11 19:25:00,
2013-04-11 12:35:00,50.6,41.9,30.27,NW,314,1.0,2.0,72,0.00,,,0.06,Wunderground v.1.15,2013-04-11 19:35:00,
2013-04-11 12:45:00,50.6,41.5,30.27,NW,310,1.0,2.0,71,0.00,,,0.06,Wunderground v.1.15,2013-04-11 19:45:00,
2013-04-11 12:55:00,50.3,41.3,30.27,North,360,1.0,2.0,71,0.00,,,0.06,Wunderground v.1.15,2013-04-11 19:55:00,
2013-04-11 13:05:00,50.0,40.2,30.27,WNW,297,1.0,5.0,69,0.00,,,0.06,Wunderground v.1.15,2013-04-11 20:05:00,
2013-04-11 13:15:00,50.7,40.5,30.26,NNE,12,1.0,2.0,68,0.00,,,0.06,Wunderground v.1.15,2013-04-11 20:15:00,
2013-04-11 13:25:00,51.7,40.3,30.27,NNE,28,1.0,1.0,65,0.00,,,0.06,Wunderground v.1.15,2013-04-11 20:25:00,
2013-04-11 13:35:00,52.0,39.4,30.26,North,8,1.0,8.0,62,0.00,,,0.06,Wunderground v.1.15,2013-04-11 20:35:00,
2013-04-11 13:45:00,52.1,39.9,30.26,NNE,20,0.0,8.0,63,0.00,,,0.06,Wunderground v.1.15,2013-04-11 20:45:00,
2013-04-11 13:55:00,52.7,40.0,30.26,North,10,0.0,8.0,62,0.00,,,0.06,Wunderground v.1.15,2013-04-11 20:55:00,
2013-04-11 14:05:00,52.3,39.7,30.26,WNW,283,1.0,3.0,62,0.00,,,0.06,Wunderground v.1.15,2013-04-11 21:05:00,
2013-04-11 14:15:00,51.5,42.8,30.26,NNW,347,2.0,2.0,72,0.00,,,0.06,Wunderground v.1.15,2013-04-11 21:15:00,
2013-04-11 14:25:00,50.8,41.7,30.26,North,11,2.0,6.0,71,0.00,,,0.06,Wunderground v.1.15,2013-04-11 21:25:00,
2013-04-11 14:35:00,51.4,41.6,30.26,NNE,18,1.0,7.0,69,0.00,,,0.06,Wunderground v.1.15,2013-04-11 21:35:00,
2013-04-11 14:45:00,51.9,40.9,30.26,NNE,23,1.0,7.0,66,0.00,,,0.06,Wunderground v.1.15,2013-04-11 21:45:00,
2013-04-11 14:55:00,52.0,39.4,30.26,WNW,283,1.0,7.0,62,0.00,,,0.06,Wunderground v.1.15,2013-04-11 21:55:00,
2013-04-11 15:05:00,53.0,38.2,30.25,NNE,18,1.0,2.0,57,0.00,,,0.06,Wunderground v.1.15,2013-04-11 22:05:00,
2013-04-11 15:15:00,53.7,37.4,30.25,NNW,344,1.0,1.0,54,0.00,,,0.06,Wunderground v.1.15,2013-04-11 22:15:00,
2013-04-11 15:25:00,53.7,36.5,30.25,NNW,330,1.0,2.0,52,0.00,,,0.06,Wunderground v.1.15,2013-04-11 22:25:00,
2013-04-11 15:35:00,53.7,36.5,30.25,NW,306,1.0,3.0,52,0.00,,,0.06,Wunderground v.1.15,2013-04-11 22:35:00,
2013-04-11 15:45:00,53.5,36.8,30.25,NNE,21,1.0,11.0,53,0.00,,,0.06,Wunderground v.1.15,2013-04-11 22:45:00,
2013-04-11 15:55:00,53.6,36.9,30.25,WNW,291,1.0,11.0,53,0.00,,,0.06,Wunderground v.1.15,2013-04-11 22:55:00,
2013-04-11 16:05:00,54.0,36.8,30.24,North,2,2.0,4.0,52,0.00,,,0.06,Wunderground v.1.15,2013-04-11 23:05:00,
2013-04-11 16:15:00,53.8,36.1,30.24,NW,308,1.0,7.0,51,0.00,,,0.06,Wunderground v.1.15,2013-04-11 23:15:00,
2013-04-11 16:25:00,53.6,36.4,30.24,NNE,29,1.0,1.0,52,0.00,,,0.06,Wunderground v.1.15,2013-04-11 23:25:00,
2013-04-11 16:35:00,53.4,36.7,30.24,WNW,299,1.0,3.0,53,0.00,,,0.06,Wunderground v.1.15,2013-04-11 23:35:00,
2013-04-11 16:45:00,53.2,37.4,30.23,NW,308,3.0,7.0,55,0.00,,,0.06,Wunderground v.1.15,2013-04-11 23:45:00,
2013-04-11 16:55:00,52.9,37.6,30.23,NW,310,4.0,4.0,56,0.00,,,0.06,Wunderground v.1.15,2013-04-11 23:55:00,
2013-04-11 17:00:00,52.7,37.4,30.23,NNE,19,3.0,3.0,56,0.00,,,0.06,Wunderground v.1.15,2013-04-12 00:00:00,
2013-04-11 17:05:00,52.7,37.4,30.23,NNW,346,2.0,3.0,56,0.00,,,0.06,Wunderground v.1.15,2013-04-12 00:05:00,
2013-04-11 17:15:00,52.7,37.4,30.23,North,356,2.0,3.0,56,0.00,,,0.06,Wunderground v.1.15,2013-04-12 00:15:00,
2013-04-11 17:25:00,52.6,36.9,30.23,NNW,334,1.0,1.0,55,0.00,,,0.06,Wunderground v.1.15,2013-04-12 00:25:00,
2013-04-11 17:35:00,52.2,36.5,30.22,North,357,1.0,10.0,55,0.00,,,0.06,Wunderground v.1.15,2013-04-12 00:35:00,
2013-04-11 17:45:00,52.0,36.3,30.22,North,356,1.0,10.0,55,0.00,,,0.06,Wunderground v.1.15,2013-04-12 00:45:00,
2013-04-11 17:55:00,51.8,36.6,30.22,NNW,343,1.0,10.0,56,0.00,,,0.06,Wunderground v.1.15,2013-04-12 00:55:00,
2013-04-11 18:05:00,51.5,37.2,30.21,North,360,1.0,2.0,58,0.00,,,0.06,Wunderground v.1.15,2013-04-12 01:05:00,
2013-04-11 18:15:00,51.4,38.0,30.21,North,1,1.0,1.0,60,0.00,,,0.06,Wunderground v.1.15,2013-04-12 01:15:00,
2013-04-11 18:25:00,51.1,38.1,30.22,NW,304,2.0,3.0,61,0.00,,,0.06,Wunderground v.1.15,2013-04-12 01:25:00,
2013-04-11 18:35:00,50.8,38.2,30.22,NW,310,2.0,7.0,62,0.00,,,0.06,Wunderground v.1.15,2013-04-12 01:35:00,
2013-04-11 18:45:00,50.6,38.5,30.21,North,8,2.0,7.0,63,0.00,,,0.06,Wunderground v.1.15,2013-04-12 01:45:00,
2013-04-11 18:50:00,50.5,38.4,30.21,NNW,328,1.0,7.0,63,0.00,,,0.06,Wunderground v.1.15,2013-04-12 01:50:00,
2013-04-11 18:55:00,50.4,38.3,30.21,WNW,290,2.0,7.0,63,0.00,,,0.06,Wunderground v.1.15,2013-04-12 01:55:00,
2013-04-11 19:05:00,50.1,38.4,30.21,NNW,333,2.0,2.0,64,0.00,,,0.06,Wunderground v.1.15,2013-04-12 02:05:00,
2013-04-11 19:15:00,49.9,38.2,30.20,NW,318,1.0,2.0,64,0.00,,,0.06,Wunderground v.1.15,2013-04-12 02:15:00,
2013-04-11 19:25:00,49.4,38.1,30.20,WNW,292,2.0,2.0,65,0.00,,,0.06,Wunderground v.1.15,2013-04-12 02:25:00,
2013-04-11 19:30:00,49.2,37.9,30.20,NW,310,1.0,2.0,65,0.00,,,0.06,Wunderground v.1.15,2013-04-12 02:30:00,
2013-04-11 19:35:00,48.9,38.0,30.19,North,354,1.0,8.0,66,0.00,,,0.06,Wunderground v.1.15,2013-04-12 02:35:00,
2013-04-11 19:45:00,48.6,38.1,30.19,NW,310,1.0,8.0,67,0.00,,,0.06,Wunderground v.1.15,2013-04-12 02:45:00,
2013-04-11 19:55:00,48.3,38.6,30.19,NNW,336,1.0,8.0,69,0.00,,,0.06,Wunderground v.1.15,2013-04-12 02:55:00,
2013-04-11 20:05:00,48.0,38.7,30.19,North,357,0.0,0.0,70,0.00,,,0.06,Wunderground v.1.15,2013-04-12 03:05:00,
2013-04-11 20:15:00,47.7,38.4,30.19,WNW,300,1.0,1.0,70,0.00,,,0.06,Wunderground v.1.15,2013-04-12 03:15:00,
2013-04-11 20:25:00,47.4,38.5,30.19,North,351,0.0,0.0,71,0.00,,,0.06,Wunderground v.1.15,2013-04-12 03:25:00,
2013-04-11 20:30:00,47.3,38.0,30.19,North,10,0.0,0.0,70,0.00,,,0.06,Wunderground v.1.15,2013-04-12 03:30:00,
2013-04-11 20:35:00,47.2,37.9,30.19,North,7,0.0,9.0,70,0.00,,,0.06,Wunderground v.1.15,2013-04-12 03:35:00,
2013-04-11 20:45:00,47.0,37.7,30.20,North,358,0.0,9.0,70,0.00,,,0.06,Wunderground v.1.15,2013-04-12 03:45:00,
2013-04-11 20:55:00,46.9,37.6,30.19,North,2,0.0,9.0,70,0.00,,,0.06,Wunderground v.1.15,2013-04-12 03:55:00,
2013-04-11 21:00:00,46.9,37.6,30.19,North,2,0.0,0.0,70,0.00,,,0.06,Wunderground v.1.15,2013-04-12 04:00:00,
2013-04-11 21:05:00,46.9,37.6,30.20,North,2,0.0,0.0,70,0.00,,,0.06,Wunderground v.1.15,2013-04-12 04:05:00,
2013-04-11 21:10:00,47.0,37.7,30.20,North,2,0.0,0.0,70,0.00,,,0.06,Wunderground v.1.15,2013-04-12 04:10:00,
2013-04-11 21:15:00,47.1,37.8,30.20,North,2,0.0,0.0,70,0.00,,,0.06,Wunderground v.1.15,2013-04-12 04:15:00,
2013-04-11 21:25:00,47.2,37.9,30.20,North,354,0.0,0.0,70,0.00,,,0.06,Wunderground v.1.15,2013-04-12 04:25:00,
2013-04-11 21:35:00,47.3,38.0,30.20,NNW,335,0.0,5.0,70,0.00,,,0.06,Wunderground v.1.15,2013-04-12 04:35:00,
2013-04-11 21:45:00,47.4,38.1,30.19,NNW,347,0.0,5.0,70,0.00,,,0.06,Wunderground v.1.15,2013-04-12 04:45:00,
2013-04-11 21:55:00,47.3,38.0,30.19,North,360,0.0,5.0,70,0.00,,,0.06,Wunderground v.1.15,2013-04-12 04:55:00,
2013-04-11 22:05:00,47.3,38.4,30.19,NNW,343,0.0,0.0,71,0.00,,,0.06,Wunderground v.1.15,2013-04-12 05:05:00,
2013-04-11 22:10:00,47.2,38.3,30.18,NNW,343,0.0,0.0,71,0.00,,,0.06,Wunderground v.1.15,2013-04-12 05:10:00,
2013-04-11 22:15:00,47.2,38.3,30.19,NNW,343,0.0,0.0,71,0.00,,,0.06,Wunderground v.1.15,2013-04-12 05:15:00,
2013-04-11 22:25:00,47.0,38.1,30.18,NNE,18,0.0,0.0,71,0.00,,,0.06,Wunderground v.1.15,2013-04-12 05:25:00,
2013-04-11 22:35:00,46.9,38.3,30.19,North,10,0.0,0.0,72,0.00,,,0.06,Wunderground v.1.15,2013-04-12 05:35:00,
2013-04-11 22:45:00,46.9,38.7,30.19,NNE,13,0.0,0.0,73,0.00,,,0.06,Wunderground v.1.15,2013-04-12 05:45:00,
2013-04-11 22:55:00,47.0,38.4,30.19,North,9,0.0,0.0,72,0.00,,,0.06,Wunderground v.1.15,2013-04-12 05:55:00,
2013-04-11 23:05:00,47.0,38.8,30.18,North,10,0.0,0.0,73,0.00,,,0.06,Wunderground v.1.15,2013-04-12 06:05:00,
2013-04-11 23:10:00,47.0,39.1,30.18,North,10,0.0,0.0,74,0.00,,,0.06,Wunderground v.1.15,2013-04-12 06:10:00,
2013-04-11 23:15:00,47.0,39.1,30.18,North,10,0.0,0.0,74,0.00,,,0.06,Wunderground v.1.15,2013-04-12 06:15:00,
2013-04-11 23:25:00,46.9,38.7,30.18,North,353,0.0,0.0,73,0.00,,,0.06,Wunderground v.1.15,2013-04-12 06:25:00,
2013-04-11 23:35:00,46.7,38.1,30.18,North,353,0.0,1.0,72,0.00,,,0.06,Wunderground v.1.15,2013-04-12 06:35:00,
2013-04-11 23:45:00,46.6,38.1,30.18,NW,314,0.0,1.0,72,0.00,,,0.06,Wunderground v.1.15,2013-04-12 06:45:00,
2013-04-11 23:55:00,46.7,38.5,30.17,NW,320,0.0,1.0,73,0.00,,,0.06,Wunderground v.1.15,2013-04-12 06:55:00,